San Marcos, Costa Rica

6:53 PM CST on July 24, 2016 (GMT -0600)
| | Change Station

Elev -9999 ft 0.00 °N, 0.00 °E | Updated

Clear
Clear
66 °F
Feels Like 66 °F
N
8
Wind Variable Wind from East
Gusts mph

Today
High -- | Low -- °F
--% Chance of Precip.
Yesterday
High -- | Low -- °F
Precip. -- in
Pressure 30.02 in
Visibility -9999.0 miles
Clouds
Dew Point 58 °F
Humidity 74%
Rainfall --
Snow Depth Not available.
5:24 AM 6:00 PM
Waning Gibbous, 71% visible
METAR MRPV 250000Z 10009KT CAVOK 22/15 A3002 NOSIG
Pressure 30.02 in
Visibility -9999.0 miles
Clouds
Dew Point 58 °F
Humidity 74%
Rainfall --
Snow Depth Not available.
5:24 AM 6:00 PM
Waning Gibbous, 71% visible
METAR MRPV 250000Z 10009KT CAVOK 22/15 A3002 NOSIG

10-Day Weather Forecast

No radar image for this location.
×

Almanac

Astronomy

Jul. 24, 2016 Rise Set
Actual Time
Civil Twilight
Nautical Twilight
Astronomical Twilight
Moon
Length of Visible Light
Length of Day
Tomorrow will be .
, % of the Moon is Illuminated

Today's Extremes

Country Highs Country Lows

Community

WunderPhotos

Upload Photos

1,927,218 photos uploaded!

WunderBlog® & News

Nearby

Air Quality

  Air Quality AQ Index Pollutant
Not available.

Snow Depth

Station Depth Elevation

Earthquake Activity

City Distance Mag. Time & Date
Minimum magnitude displayed is 2.5.

Coastal Water Temperatures

Place Temperature

Stations

Nearby Weather Stations

Station Location Temp. Windchill Dew Point Humidity Wind Precip. Elev Updated Type